Time,TemperatureF,DewpointF,PressureIn,WindDirection,WindDirectionDegrees,WindSpeedMPH,WindSpeedGustMPH,Humidity,HourlyPrecipIn,Conditions,Clouds,dailyrainin,SoftwareType,DateUTC
2013-08-17 00:00:00,61.5,59.5,30.12,SE,130,0.0,0.0,93,0.00,,CLR,0.00,VWS V14.01,2013-08-17 05:00:00,
2013-08-17 00:01:00,61.4,59.4,30.12,SE,130,0.0,0.0,93,0.00,,CLR,0.00,VWS V14.01,2013-08-17 05:01:00,
2013-08-17 00:05:00,61.3,59.3,30.12,SE,130,0.0,0.0,93,0.00,,CLR,0.00,VWS V14.01,2013-08-17 05:05:00,
2013-08-17 00:06:00,61.3,59.3,30.12,SE,130,0.0,0.0,93,0.00,,CLR,0.00,VWS V14.01,2013-08-17 05:06:00,
2013-08-17 00:10:00,61.1,59.1,30.13,SE,130,0.0,0.0,93,0.00,,CLR,0.00,VWS V14.01,2013-08-17 05:10:00,
2013-08-17 00:11:00,61.0,59.0,30.13,SE,130,0.0,0.0,93,0.00,,CLR,0.00,VWS V14.01,2013-08-17 05:11:00,
2013-08-17 00:15:00,60.9,58.9,30.13,SE,130,0.0,0.0,93,0.00,,CLR,0.00,VWS V14.01,2013-08-17 05:15:00,
2013-08-17 00:16:00,60.8,58.8,30.13,SE,130,0.0,0.0,93,0.00,,CLR,0.00,VWS V14.01,2013-08-17 05:16:00,
2013-08-17 00:20:00,60.8,58.8,30.13,SE,130,0.0,0.0,93,0.00,,CLR,0.00,VWS V14.01,2013-08-17 05:20:00,
2013-08-17 00:21:00,60.7,58.7,30.13,SE,130,0.0,0.0,93,0.00,,CLR,0.00,VWS V14.01,2013-08-17 05:21:00,
2013-08-17 00:25:00,60.7,58.7,30.13,SE,130,0.0,0.0,93,0.00,,CLR,0.00,VWS V14.01,2013-08-17 05:25:00,
2013-08-17 00:26:00,60.7,59.0,30.13,SE,130,0.0,0.0,94,0.00,,CLR,0.00,VWS V14.01,2013-08-17 05:26:00,
2013-08-17 00:30:00,60.6,58.6,30.13,SE,130,0.0,0.0,93,0.00,,CLR,0.00,VWS V14.01,2013-08-17 05:30:00,
2013-08-17 00:32:00,60.5,58.8,30.13,SE,130,0.0,0.0,94,0.00,,CLR,0.00,VWS V14.01,2013-08-17 05:32:00,
2013-08-17 00:35:00,60.5,58.8,30.13,SE,130,0.0,0.0,94,0.00,,CLR,0.00,VWS V14.01,2013-08-17 05:35:00,
2013-08-17 00:37:00,60.5,58.5,30.13,SE,130,0.0,0.0,93,0.00,,CLR,0.00,VWS V14.01,2013-08-17 05:37:00,
2013-08-17 00:40:00,60.5,58.5,30.13,SE,130,0.0,0.0,93,0.00,,CLR,0.00,VWS V14.01,2013-08-17 05:40:00,
2013-08-17 00:42:00,60.5,58.8,30.13,SE,130,0.0,0.0,94,0.00,,CLR,0.00,VWS V14.01,2013-08-17 05:42:00,
2013-08-17 00:45:00,60.5,58.8,30.13,SE,130,0.0,0.0,94,0.00,,CLR,0.00,VWS V14.01,2013-08-17 05:45:00,
2013-08-17 00:47:00,60.5,58.8,30.13,SE,130,0.0,0.0,94,0.00,,CLR,0.00,VWS V14.01,2013-08-17 05:47:00,
2013-08-17 00:50:00,60.5,58.8,30.13,SE,130,0.0,0.0,94,0.00,,CLR,0.00,VWS V14.01,2013-08-17 05:50:00,
2013-08-17 00:52:00,60.5,58.8,30.13,SE,130,0.0,0.0,94,0.00,,CLR,0.00,VWS V14.01,2013-08-17 05:52:00,
2013-08-17 00:55:00,60.5,58.8,30.13,SE,130,0.0,0.0,94,0.00,,CLR,0.00,VWS V14.01,2013-08-17 05:55:00,
2013-08-17 00:57:00,60.5,58.8,30.13,SE,130,0.0,0.0,94,0.00,,CLR,0.00,VWS V14.01,2013-08-17 05:57:00,
2013-08-17 01:00:00,60.4,58.7,30.13,SE,130,0.0,0.0,94,0.00,,CLR,0.00,VWS V14.01,2013-08-17 06:00:00,
2013-08-17 01:02:00,60.4,58.4,30.13,SE,130,0.0,0.0,93,0.00,,CLR,0.00,VWS V14.01,2013-08-17 06:02:00,
2013-08-17 01:05:00,60.2,58.2,30.14,SE,130,0.0,0.0,93,0.00,,CLR,0.00,VWS V14.01,2013-08-17 06:05:00,
2013-08-17 01:07:00,60.0,58.0,30.14,SE,130,0.0,0.0,93,0.00,,CLR,0.00,VWS V14.01,2013-08-17 06:07:00,
2013-08-17 01:10:00,59.9,57.9,30.14,SE,130,0.0,0.0,93,0.00,,CLR,0.00,VWS V14.01,2013-08-17 06:10:00,
2013-08-17 01:12:00,59.9,58.2,30.14,SE,130,0.0,0.0,94,0.00,,CLR,0.00,VWS V14.01,2013-08-17 06:12:00,
2013-08-17 01:15:00,59.9,58.2,30.14,SE,130,0.0,0.0,94,0.00,,CLR,0.00,VWS V14.01,2013-08-17 06:15:00,
2013-08-17 01:17:00,59.8,57.8,30.14,SE,130,0.0,0.0,93,0.00,,CLR,0.00,VWS V14.01,2013-08-17 06:17:00,
2013-08-17 01:20:00,59.8,57.8,30.14,SE,130,0.0,0.0,93,0.00,,CLR,0.00,VWS V14.01,2013-08-17 06:20:00,
2013-08-17 01:22:00,59.8,58.1,30.14,SE,130,0.0,0.0,94,0.00,,CLR,0.00,VWS V14.01,2013-08-17 06:22:00,
2013-08-17 01:25:00,59.8,57.8,30.14,SE,130,0.0,0.0,93,0.00,,CLR,0.00,VWS V14.01,2013-08-17 06:25:00,
2013-08-17 01:27:00,59.8,57.8,30.14,SE,130,0.0,0.0,93,0.00,,CLR,0.00,VWS V14.01,2013-08-17 06:27:00,
2013-08-17 01:30:00,59.8,58.1,30.14,SE,130,0.0,0.0,94,0.00,,CLR,0.00,VWS V14.01,2013-08-17 06:30:00,
2013-08-17 01:32:00,59.8,58.1,30.14,SE,130,0.0,0.0,94,0.00,,CLR,0.00,VWS V14.01,2013-08-17 06:32:00,
2013-08-17 01:35:00,59.7,58.0,30.14,SE,130,0.0,0.0,94,0.00,,CLR,0.00,VWS V14.01,2013-08-17 06:35:00,
2013-08-17 01:37:00,59.7,57.7,30.14,SE,130,0.0,0.0,93,0.00,,CLR,0.00,VWS V14.01,2013-08-17 06:37:00,
2013-08-17 01:40:00,59.6,57.6,30.14,SE,130,0.0,0.0,93,0.00,,CLR,0.00,VWS V14.01,2013-08-17 06:40:00,
2013-08-17 01:42:00,59.5,57.5,30.14,SE,130,0.0,0.0,93,0.00,,CLR,0.00,VWS V14.01,2013-08-17 06:42:00,
2013-08-17 01:45:00,59.4,57.4,30.14,SE,130,0.0,0.0,93,0.00,,CLR,0.00,VWS V14.01,2013-08-17 06:45:00,
2013-08-17 01:47:00,59.4,57.4,30.13,SE,130,0.0,0.0,93,0.00,,CLR,0.00,VWS V14.01,2013-08-17 06:47:00,
2013-08-17 01:50:00,59.4,57.7,30.13,SE,130,0.0,0.0,94,0.00,,CLR,0.00,VWS V14.01,2013-08-17 06:50:00,
2013-08-17 01:52:00,59.3,57.6,30.13,SE,130,0.0,0.0,94,0.00,,CLR,0.00,VWS V14.01,2013-08-17 06:52:00,
2013-08-17 01:55:00,59.3,57.6,30.13,SE,130,0.0,0.0,94,0.00,,CLR,0.00,VWS V14.01,2013-08-17 06:55:00,
2013-08-17 01:57:00,59.2,57.5,30.13,SE,130,0.0,0.0,94,0.00,,CLR,0.00,VWS V14.01,2013-08-17 06:57:00,
2013-08-17 02:00:00,59.1,57.4,30.13,SE,130,0.0,0.0,94,0.00,,CLR,0.00,VWS V14.01,2013-08-17 07:00:00,
2013-08-17 02:02:00,59.0,57.3,30.14,SE,130,0.0,0.0,94,0.00,,CLR,0.00,VWS V14.01,2013-08-17 07:02:00,
2013-08-17 02:05:00,58.9,57.2,30.14,SE,130,0.0,0.0,94,0.00,,CLR,0.00,VWS V14.01,2013-08-17 07:05:00,
2013-08-17 02:07:00,58.7,57.0,30.14,SE,130,0.0,0.0,94,0.00,,CLR,0.00,VWS V14.01,2013-08-17 07:07:00,
2013-08-17 02:10:00,58.7,57.0,30.14,SE,130,0.0,0.0,94,0.00,,CLR,0.00,VWS V14.01,2013-08-17 07:10:00,
2013-08-17 02:12:00,58.5,56.5,30.14,SE,130,0.0,0.0,93,0.00,,CLR,0.00,VWS V14.01,2013-08-17 07:12:00,
2013-08-17 02:15:00,58.4,56.4,30.14,SE,130,0.0,0.0,93,0.00,,CLR,0.00,VWS V14.01,2013-08-17 07:15:00,
2013-08-17 02:18:00,58.2,56.5,30.14,SE,130,0.0,0.0,94,0.00,,CLR,0.00,VWS V14.01,2013-08-17 07:18:00,
2013-08-17 02:20:00,58.1,56.4,30.14,SE,130,0.0,0.0,94,0.00,,CLR,0.00,VWS V14.01,2013-08-17 07:20:00,
2013-08-17 02:23:00,58.1,56.4,30.14,SE,130,0.0,0.0,94,0.00,,CLR,0.00,VWS V14.01,2013-08-17 07:23:00,
2013-08-17 02:25:00,58.1,56.4,30.14,SE,130,0.0,0.0,94,0.00,,CLR,0.00,VWS V14.01,2013-08-17 07:25:00,
2013-08-17 02:28:00,58.1,56.4,30.14,SE,130,0.0,0.0,94,0.00,,CLR,0.00,VWS V14.01,2013-08-17 07:28:00,
2013-08-17 02:30:00,58.1,56.4,30.14,SE,130,0.0,0.0,94,0.00,,CLR,0.00,VWS V14.01,2013-08-17 07:30:00,
2013-08-17 02:33:00,58.0,56.3,30.14,SE,130,0.0,0.0,94,0.00,,CLR,0.00,VWS V14.01,2013-08-17 07:33:00,
2013-08-17 02:35:00,58.0,56.3,30.14,SE,130,0.0,0.0,94,0.00,,CLR,0.00,VWS V14.01,2013-08-17 07:35:00,
2013-08-17 02:38:00,57.8,56.1,30.14,SE,130,0.0,0.0,94,0.00,,CLR,0.00,VWS V14.01,2013-08-17 07:38:00,
2013-08-17 02:40:00,57.8,56.1,30.14,SE,130,0.0,0.0,94,0.00,,CLR,0.00,VWS V14.01,2013-08-17 07:40:00,
2013-08-17 02:43:00,57.6,55.9,30.14,SE,130,0.0,0.0,94,0.00,,CLR,0.00,VWS V14.01,2013-08-17 07:43:00,
2013-08-17 02:45:00,57.6,55.9,30.14,SE,130,0.0,0.0,94,0.00,,CLR,0.00,VWS V14.01,2013-08-17 07:45:00,
2013-08-17 02:48:00,57.6,55.9,30.14,SE,130,0.0,0.0,94,0.00,,CLR,0.00,VWS V14.01,2013-08-17 07:48:00,
2013-08-17 02:50:00,57.6,55.9,30.14,SE,130,0.0,0.0,94,0.00,,CLR,0.00,VWS V14.01,2013-08-17 07:50:00,
2013-08-17 02:53:00,57.6,55.9,30.14,SE,130,0.0,0.0,94,0.00,,CLR,0.00,VWS V14.01,2013-08-17 07:53:00,
2013-08-17 02:55:00,57.5,55.8,30.14,SE,130,0.0,0.0,94,0.00,,CLR,0.00,VWS V14.01,2013-08-17 07:55:00,
2013-08-17 02:58:00,57.6,55.9,30.14,SE,130,0.0,0.0,94,0.00,,CLR,0.00,VWS V14.01,2013-08-17 07:58:00,
2013-08-17 03:00:00,57.6,55.9,30.14,SE,130,0.0,0.0,94,0.00,,CLR,0.00,VWS V14.01,2013-08-17 08:00:00,
2013-08-17 03:03:00,57.6,55.9,30.14,SE,130,0.0,0.0,94,0.00,,CLR,0.00,VWS V14.01,2013-08-17 08:03:00,
2013-08-17 03:05:00,57.6,55.9,30.14,SE,130,0.0,0.0,94,0.00,,CLR,0.00,VWS V14.01,2013-08-17 08:05:00,
2013-08-17 03:08:00,57.7,56.0,30.14,SE,130,0.0,0.0,94,0.00,,CLR,0.00,VWS V14.01,2013-08-17 08:08:00,
2013-08-17 03:10:00,57.8,56.1,30.14,SE,130,0.0,0.0,94,0.00,,CLR,0.00,VWS V14.01,2013-08-17 08:10:00,
2013-08-17 03:13:00,57.7,56.0,30.14,SE,130,0.0,0.0,94,0.00,,CLR,0.00,VWS V14.01,2013-08-17 08:13:00,
2013-08-17 03:15:00,57.7,56.0,30.14,SE,130,0.0,0.0,94,0.00,,CLR,0.00,VWS V14.01,2013-08-17 08:15:00,
2013-08-17 03:18:00,57.5,55.5,30.14,SE,130,0.0,0.0,93,0.00,,CLR,0.00,VWS V14.01,2013-08-17 08:18:00,
2013-08-17 03:20:00,57.5,55.8,30.14,SE,130,0.0,0.0,94,0.00,,CLR,0.00,VWS V14.01,2013-08-17 08:20:00,
2013-08-17 03:23:00,57.5,55.8,30.14,SE,130,0.0,0.0,94,0.00,,CLR,0.00,VWS V14.01,2013-08-17 08:23:00,
2013-08-17 03:25:00,57.4,55.7,30.14,SE,130,0.0,0.0,94,0.00,,CLR,0.00,VWS V14.01,2013-08-17 08:25:00,
2013-08-17 03:28:00,57.3,55.6,30.15,SE,130,0.0,0.0,94,0.00,,CLR,0.00,VWS V14.01,2013-08-17 08:28:00,
2013-08-17 03:30:00,57.3,55.6,30.15,SE,130,0.0,0.0,94,0.00,,CLR,0.00,VWS V14.01,2013-08-17 08:30:00,
2013-08-17 03:33:00,57.3,55.6,30.15,SE,130,0.0,0.0,94,0.00,,CLR,0.00,VWS V14.01,2013-08-17 08:33:00,
2013-08-17 03:35:00,57.3,55.6,30.15,SE,130,0.0,0.0,94,0.00,,CLR,0.00,VWS V14.01,2013-08-17 08:35:00,
2013-08-17 03:38:00,57.1,55.4,30.15,SE,130,0.0,0.0,94,0.00,,CLR,0.00,VWS V14.01,2013-08-17 08:38:00,
2013-08-17 03:40:00,57.1,55.4,30.15,SE,130,0.0,0.0,94,0.00,,CLR,0.00,VWS V14.01,2013-08-17 08:40:00,
2013-08-17 03:43:00,57.0,55.3,30.15,SE,130,0.0,0.0,94,0.00,,CLR,0.00,VWS V14.01,2013-08-17 08:43:00,
2013-08-17 03:45:00,56.9,55.2,30.15,SE,130,0.0,0.0,94,0.00,,CLR,0.00,VWS V14.01,2013-08-17 08:45:00,
2013-08-17 03:48:00,56.9,55.2,30.15,SE,130,0.0,0.0,94,0.00,,CLR,0.00,VWS V14.01,2013-08-17 08:48:00,
2013-08-17 03:50:00,56.9,55.2,30.15,SE,130,0.0,0.0,94,0.00,,CLR,0.00,VWS V14.01,2013-08-17 08:50:00,
2013-08-17 03:53:00,56.9,55.2,30.15,SE,130,0.0,0.0,94,0.00,,CLR,0.00,VWS V14.01,2013-08-17 08:53:00,
2013-08-17 03:55:00,56.9,55.2,30.15,SE,130,0.0,0.0,94,0.00,,CLR,0.00,VWS V14.01,2013-08-17 08:55:00,
2013-08-17 03:58:00,56.9,55.2,30.15,SE,130,0.0,0.0,94,0.00,,CLR,0.00,VWS V14.01,2013-08-17 08:58:00,
2013-08-17 04:00:00,56.9,55.2,30.15,SE,130,0.0,0.0,94,0.00,,CLR,0.00,VWS V14.01,2013-08-17 09:00:00,
2013-08-17 04:03:00,56.8,55.1,30.15,SE,130,0.0,0.0,94,0.00,,CLR,0.00,VWS V14.01,2013-08-17 09:03:00,
2013-08-17 04:05:00,56.8,55.1,30.15,SE,130,0.0,0.0,94,0.00,,CLR,0.00,VWS V14.01,2013-08-17 09:05:00,
2013-08-17 04:09:00,56.7,55.0,30.15,SE,130,0.0,0.0,94,0.00,,CLR,0.00,VWS V14.01,2013-08-17 09:09:00,
2013-08-17 04:10:00,56.7,55.0,30.15,SE,130,0.0,0.0,94,0.00,,CLR,0.00,VWS V14.01,2013-08-17 09:10:00,
2013-08-17 04:14:00,56.5,54.8,30.15,SE,130,0.0,0.0,94,0.00,,CLR,0.00,VWS V14.01,2013-08-17 09:14:00,
2013-08-17 04:15:00,56.5,54.8,30.15,SE,130,0.0,0.0,94,0.00,,CLR,0.00,VWS V14.01,2013-08-17 09:15:00,
2013-08-17 04:19:00,56.5,54.8,30.15,SE,130,0.0,0.0,94,0.00,,CLR,0.00,VWS V14.01,2013-08-17 09:19:00,
2013-08-17 04:20:00,56.4,54.7,30.15,SE,130,0.0,0.0,94,0.00,,CLR,0.00,VWS V14.01,2013-08-17 09:20:00,
2013-08-17 04:24:00,56.4,54.7,30.15,SE,130,0.0,0.0,94,0.00,,CLR,0.00,VWS V14.01,2013-08-17 09:24:00,
2013-08-17 04:25:00,56.5,54.8,30.15,SE,130,0.0,0.0,94,0.00,,CLR,0.00,VWS V14.01,2013-08-17 09:25:00,
2013-08-17 04:29:00,56.3,54.6,30.15,SE,130,0.0,0.0,94,0.00,,CLR,0.00,VWS V14.01,2013-08-17 09:29:00,
2013-08-17 04:30:00,56.3,54.6,30.15,SE,130,0.0,0.0,94,0.00,,CLR,0.00,VWS V14.01,2013-08-17 09:30:00,
2013-08-17 04:34:00,56.1,54.4,30.15,SE,130,0.0,0.0,94,0.00,,CLR,0.00,VWS V14.01,2013-08-17 09:34:00,
2013-08-17 04:35:00,56.1,54.4,30.15,SE,130,0.0,0.0,94,0.00,,CLR,0.00,VWS V14.01,2013-08-17 09:35:00,
2013-08-17 04:39:00,55.9,54.2,30.15,SE,130,0.0,0.0,94,0.00,,CLR,0.00,VWS V14.01,2013-08-17 09:39:00,
2013-08-17 04:40:00,55.9,54.2,30.15,SE,130,0.0,0.0,94,0.00,,CLR,0.00,VWS V14.01,2013-08-17 09:40:00,
2013-08-17 04:44:00,55.8,54.1,30.15,SE,130,0.0,0.0,94,0.00,,CLR,0.00,VWS V14.01,2013-08-17 09:44:00,
2013-08-17 04:45:00,55.8,54.1,30.15,SE,130,0.0,0.0,94,0.00,,CLR,0.00,VWS V14.01,2013-08-17 09:45:00,
2013-08-17 04:49:00,55.7,54.0,30.15,SE,130,0.0,0.0,94,0.00,,CLR,0.00,VWS V14.01,2013-08-17 09:49:00,
2013-08-17 04:50:00,55.7,54.0,30.15,SE,130,0.0,0.0,94,0.00,,CLR,0.00,VWS V14.01,2013-08-17 09:50:00,
2013-08-17 04:54:00,55.7,54.0,30.15,SE,130,0.0,0.0,94,0.00,,CLR,0.00,VWS V14.01,2013-08-17 09:54:00,
2013-08-17 04:55:00,55.7,54.0,30.15,SE,130,0.0,0.0,94,0.00,,CLR,0.00,VWS V14.01,2013-08-17 09:55:00,
2013-08-17 04:59:00,55.6,53.9,30.15,SE,130,0.0,0.0,94,0.00,,CLR,0.00,VWS V14.01,2013-08-17 09:59:00,
2013-08-17 05:00:00,55.6,53.9,30.15,SE,130,0.0,0.0,94,0.00,,CLR,0.00,VWS V14.01,2013-08-17 10:00:00,
2013-08-17 05:04:00,55.4,53.7,30.15,SE,130,0.0,0.0,94,0.00,,CLR,0.00,VWS V14.01,2013-08-17 10:04:00,
2013-08-17 05:05:00,55.4,53.7,30.15,SE,130,0.0,0.0,94,0.00,,CLR,0.00,VWS V14.01,2013-08-17 10:05:00,
2013-08-17 05:09:00,55.6,54.2,30.15,SE,130,0.0,0.0,95,0.00,,CLR,0.00,VWS V14.01,2013-08-17 10:09:00,
2013-08-17 05:10:00,55.6,54.2,30.15,SE,130,0.0,0.0,95,0.00,,CLR,0.00,VWS V14.01,2013-08-17 10:10:00,
2013-08-17 05:14:00,55.8,54.4,30.15,SE,130,0.0,0.0,95,0.00,,CLR,0.00,VWS V14.01,2013-08-17 10:14:00,
2013-08-17 05:15:00,55.8,54.4,30.15,SE,130,0.0,0.0,95,0.00,,CLR,0.00,VWS V14.01,2013-08-17 10:15:00,
2013-08-17 05:19:00,55.7,54.0,30.16,SE,130,0.0,0.0,94,0.00,,CLR,0.00,VWS V14.01,2013-08-17 10:19:00,
2013-08-17 05:20:00,55.7,54.0,30.16,SE,130,0.0,0.0,94,0.00,,CLR,0.00,VWS V14.01,2013-08-17 10:20:00,
2013-08-17 05:24:00,55.5,53.8,30.16,SE,130,0.0,0.0,94,0.00,,CLR,0.00,VWS V14.01,2013-08-17 10:24:00,
2013-08-17 05:25:00,55.5,53.8,30.16,SE,130,0.0,0.0,94,0.00,,CLR,0.00,VWS V14.01,2013-08-17 10:25:00,
2013-08-17 05:29:00,55.6,54.2,30.16,SE,130,0.0,0.0,95,0.00,,CLR,0.00,VWS V14.01,2013-08-17 10:29:00,
2013-08-17 05:30:00,55.6,54.2,30.16,SE,130,0.0,0.0,95,0.00,,CLR,0.00,VWS V14.01,2013-08-17 10:30:00,
2013-08-17 05:34:00,55.6,53.9,30.16,SE,130,0.0,0.0,94,0.00,,CLR,0.00,VWS V14.01,2013-08-17 10:34:00,
2013-08-17 05:35:00,55.6,53.9,30.16,SE,130,0.0,0.0,94,0.00,,CLR,0.00,VWS V14.01,2013-08-17 10:35:00,
2013-08-17 05:39:00,55.5,53.8,30.16,SE,130,0.0,0.0,94,0.01,,CLR,0.01,VWS V14.01,2013-08-17 10:39:00,
2013-08-17 05:40:00,55.5,53.8,30.16,SE,130,0.0,0.0,94,0.01,,CLR,0.01,VWS V14.01,2013-08-17 10:40:00,
2013-08-17 05:44:00,55.4,53.7,30.16,SE,130,0.0,0.0,94,0.01,,CLR,0.01,VWS V14.01,2013-08-17 10:44:00,
2013-08-17 05:45:00,55.4,53.7,30.16,SE,130,0.0,0.0,94,0.01,,CLR,0.01,VWS V14.01,2013-08-17 10:45:00,
2013-08-17 05:50:00,55.3,53.6,30.16,SE,130,0.0,0.0,94,0.01,,CLR,0.01,VWS V14.01,2013-08-17 10:50:00,
2013-08-17 05:55:00,55.2,53.5,30.16,SE,130,0.0,0.0,94,0.01,,CLR,0.01,VWS V14.01,2013-08-17 10:55:00,
2013-08-17 06:00:00,55.4,53.7,30.17,SE,130,0.0,0.0,94,0.01,,CLR,0.01,VWS V14.01,2013-08-17 11:00:00,
2013-08-17 06:05:00,55.5,53.8,30.17,SE,130,0.0,0.0,94,0.01,,FEW200,0.01,VWS V14.01,2013-08-17 11:05:00,
2013-08-17 06:10:00,55.5,53.8,30.17,SE,130,0.0,0.0,94,0.01,,FEW200,0.01,VWS V14.01,2013-08-17 11:10:00,
2013-08-17 06:15:00,55.6,53.9,30.17,SE,130,0.0,0.0,94,0.01,,FEW200,0.01,VWS V14.01,2013-08-17 11:15:00,
2013-08-17 06:20:00,55.7,54.0,30.17,SE,130,0.0,0.0,94,0.01,,FEW200,0.01,VWS V14.01,2013-08-17 11:20:00,
2013-08-17 06:25:00,55.8,54.1,30.17,SE,130,0.0,0.0,94,0.01,,FEW200,0.01,VWS V14.01,2013-08-17 11:25:00,
2013-08-17 06:30:00,56.0,54.3,30.17,SE,130,0.0,0.0,94,0.01,,FEW200,0.01,VWS V14.01,2013-08-17 11:30:00,
2013-08-17 06:35:00,56.2,54.5,30.17,SE,130,0.0,0.0,94,0.01,,FEW200,0.01,VWS V14.01,2013-08-17 11:35:00,
2013-08-17 06:40:00,56.4,54.4,30.17,SE,130,0.0,0.0,93,0.00,,FEW200,0.01,VWS V14.01,2013-08-17 11:40:00,
2013-08-17 06:45:00,56.5,54.5,30.17,SE,130,0.0,0.0,93,0.00,,FEW200,0.01,VWS V14.01,2013-08-17 11:45:00,
2013-08-17 06:50:00,56.6,54.6,30.17,SE,130,0.0,0.0,93,0.00,,FEW200,0.01,VWS V14.01,2013-08-17 11:50:00,
2013-08-17 06:55:00,56.7,54.4,30.17,SE,130,0.0,0.0,92,0.00,,FEW200,0.01,VWS V14.01,2013-08-17 11:55:00,
2013-08-17 07:00:00,56.9,54.6,30.17,SE,130,0.0,0.0,92,0.00,,FEW200,0.01,VWS V14.01,2013-08-17 12:00:00,
2013-08-17 07:05:00,57.2,55.2,30.17,SE,130,0.0,0.0,93,0.00,,FEW200,0.01,VWS V14.01,2013-08-17 12:05:00,
2013-08-17 07:10:00,57.5,55.2,30.17,SE,130,0.0,0.0,92,0.00,,FEW200,0.01,VWS V14.01,2013-08-17 12:10:00,
2013-08-17 07:13:00,57.6,55.3,30.17,SE,130,0.0,0.0,92,0.00,,FEW200,0.01,VWS V14.01,2013-08-17 12:13:00,
2013-08-17 07:15:00,57.6,55.3,30.17,SE,130,0.0,0.0,92,0.00,,CLR,0.01,VWS V14.01,2013-08-17 12:15:00,
2013-08-17 07:18:00,57.9,55.6,30.18,SE,130,0.0,0.0,92,0.00,,FEW200,0.01,VWS V14.01,2013-08-17 12:18:00,
2013-08-17 07:20:00,58.0,55.7,30.18,SE,130,0.0,0.0,92,0.00,,CLR,0.01,VWS V14.01,2013-08-17 12:20:00,
2013-08-17 07:23:00,58.4,56.1,30.18,SE,130,0.0,0.0,92,0.00,,FEW200,0.01,VWS V14.01,2013-08-17 12:23:00,
2013-08-17 07:25:00,58.5,56.2,30.18,SE,130,0.0,0.0,92,0.00,,CLR,0.01,VWS V14.01,2013-08-17 12:25:00,
2013-08-17 07:28:00,59.0,56.7,30.18,SE,130,0.0,0.0,92,0.00,,FEW200,0.01,VWS V14.01,2013-08-17 12:28:00,
2013-08-17 07:30:00,59.1,56.8,30.18,SE,130,0.0,0.0,92,0.00,,CLR,0.01,VWS V14.01,2013-08-17 12:30:00,
2013-08-17 07:33:00,59.6,57.0,30.18,SE,130,0.0,0.0,91,0.00,,FEW200,0.01,VWS V14.01,2013-08-17 12:33:00,
2013-08-17 07:35:00,59.7,57.1,30.18,SE,130,0.0,0.0,91,0.00,,CLR,0.01,VWS V14.01,2013-08-17 12:35:00,
2013-08-17 07:39:00,60.2,57.3,30.18,SE,130,0.0,0.0,90,0.00,,FEW200,0.01,VWS V14.01,2013-08-17 12:39:00,
2013-08-17 07:40:00,60.2,57.3,30.18,SE,130,0.0,0.0,90,0.00,,CLR,0.01,VWS V14.01,2013-08-17 12:40:00,
2013-08-17 07:44:00,60.8,57.8,30.18,SE,130,0.0,0.0,90,0.00,,FEW200,0.01,VWS V14.01,2013-08-17 12:44:00,
2013-08-17 07:45:00,60.9,58.0,30.18,SE,130,0.0,0.0,90,0.00,,CLR,0.01,VWS V14.01,2013-08-17 12:45:00,
2013-08-17 07:49:00,61.5,58.2,30.18,SE,130,0.0,0.0,89,0.00,,FEW200,0.01,VWS V14.01,2013-08-17 12:49:00,
2013-08-17 07:50:00,61.5,58.2,30.18,SE,130,0.0,0.0,89,0.00,,CLR,0.01,VWS V14.01,2013-08-17 12:50:00,
2013-08-17 07:54:00,62.0,58.1,30.18,SSW,209,0.0,0.0,87,0.00,,FEW200,0.01,VWS V14.01,2013-08-17 12:54:00,
2013-08-17 07:55:00,62.1,58.2,30.18,SSW,209,0.0,0.0,87,0.00,,CLR,0.01,VWS V14.01,2013-08-17 12:55:00,
2013-08-17 07:59:00,62.6,58.7,30.18,SSW,209,0.0,0.0,87,0.00,,FEW200,0.01,VWS V14.01,2013-08-17 12:59:00,
2013-08-17 08:00:00,62.7,58.8,30.18,SSW,209,0.0,0.0,87,0.00,,CLR,0.01,VWS V14.01,2013-08-17 13:00:00,
2013-08-17 08:04:00,63.5,59.6,30.18,SSW,209,0.0,0.0,87,0.00,,FEW200,0.01,VWS V14.01,2013-08-17 13:04:00,
2013-08-17 08:05:00,63.6,59.7,30.18,SSW,209,0.0,0.0,87,0.00,,CLR,0.01,VWS V14.01,2013-08-17 13:05:00,
2013-08-17 08:09:00,64.4,60.1,30.18,SSW,209,0.0,0.0,86,0.00,,FEW200,0.01,VWS V14.01,2013-08-17 13:09:00,
2013-08-17 08:10:00,64.4,60.1,30.18,SSW,209,0.0,0.0,86,0.00,,CLR,0.01,VWS V14.01,2013-08-17 13:10:00,
2013-08-17 08:14:00,65.2,60.2,30.18,SSW,209,0.0,0.0,84,0.00,,FEW200,0.01,VWS V14.01,2013-08-17 13:14:00,
2013-08-17 08:15:00,65.2,60.2,30.18,SSW,209,0.0,0.0,84,0.00,,CLR,0.01,VWS V14.01,2013-08-17 13:15:00,
2013-08-17 08:19:00,65.9,60.6,30.18,SSW,209,0.0,0.0,83,0.00,,FEW200,0.01,VWS V14.01,2013-08-17 13:19:00,
2013-08-17 08:20:00,65.9,60.6,30.18,SSW,209,0.0,0.0,83,0.00,,CLR,0.01,VWS V14.01,2013-08-17 13:20:00,
2013-08-17 08:24:00,66.5,60.8,30.18,SSW,209,0.0,0.0,82,0.00,,FEW200,0.01,VWS V14.01,2013-08-17 13:24:00,
2013-08-17 08:25:00,66.5,60.8,30.18,SSW,209,0.0,0.0,82,0.00,,CLR,0.01,VWS V14.01,2013-08-17 13:25:00,
2013-08-17 08:29:00,67.1,61.4,30.18,SSW,209,0.0,0.0,82,0.00,,FEW200,0.01,VWS V14.01,2013-08-17 13:29:00,
2013-08-17 08:30:00,67.1,61.4,30.18,SSW,209,0.0,0.0,82,0.00,,CLR,0.01,VWS V14.01,2013-08-17 13:30:00,
2013-08-17 08:34:00,67.7,61.7,30.18,SSW,209,0.0,0.0,81,0.00,,FEW200,0.01,VWS V14.01,2013-08-17 13:34:00,
2013-08-17 08:35:00,67.7,61.7,30.18,SSW,209,0.0,0.0,81,0.00,,CLR,0.01,VWS V14.01,2013-08-17 13:35:00,
2013-08-17 08:39:00,68.0,62.0,30.18,SSW,207,0.0,0.0,81,0.00,,FEW200,0.01,VWS V14.01,2013-08-17 13:39:00,
2013-08-17 08:40:00,68.0,62.0,30.18,SSW,207,0.0,0.0,81,0.00,,CLR,0.01,VWS V14.01,2013-08-17 13:40:00,
2013-08-17 08:44:00,68.1,62.4,30.19,SSW,200,0.0,0.0,82,0.00,,FEW200,0.01,VWS V14.01,2013-08-17 13:44:00,
2013-08-17 08:45:00,68.1,62.4,30.19,SSW,200,0.0,0.0,82,0.00,,CLR,0.01,VWS V14.01,2013-08-17 13:45:00,
2013-08-17 08:49:00,68.6,62.9,30.19,North,360,0.0,0.0,82,0.00,,FEW200,0.01,VWS V14.01,2013-08-17 13:49:00,
2013-08-17 08:50:00,68.6,62.9,30.19,North,360,0.0,0.0,82,0.00,,CLR,0.01,VWS V14.01,2013-08-17 13:50:00,
2013-08-17 08:54:00,69.0,63.3,30.19,SSW,198,0.0,0.0,82,0.00,,FEW200,0.01,VWS V14.01,2013-08-17 13:54:00,
2013-08-17 08:55:00,69.0,63.3,30.19,SSW,198,0.0,0.0,82,0.00,,CLR,0.01,VWS V14.01,2013-08-17 13:55:00,
2013-08-17 08:59:00,69.4,63.3,30.18,North,360,0.0,0.0,81,0.00,,FEW200,0.01,VWS V14.01,2013-08-17 13:59:00,
2013-08-17 09:00:00,69.4,63.3,30.18,North,360,0.0,0.0,81,0.00,,CLR,0.01,VWS V14.01,2013-08-17 14:00:00,
2013-08-17 09:04:00,69.8,63.4,30.18,SSW,212,0.0,0.0,80,0.00,,FEW250,0.01,VWS V14.01,2013-08-17 14:04:00,
2013-08-17 09:05:00,69.7,63.6,30.18,SSW,212,0.0,0.0,81,0.00,,CLR,0.01,VWS V14.01,2013-08-17 14:05:00,
2013-08-17 09:09:00,70.3,63.5,30.18,SSW,195,0.0,0.0,79,0.00,,FEW250,0.01,VWS V14.01,2013-08-17 14:09:00,
2013-08-17 09:10:00,70.3,63.5,30.18,SSW,195,0.0,0.0,79,0.00,,CLR,0.01,VWS V14.01,2013-08-17 14:10:00,
2013-08-17 09:14:00,71.0,63.8,30.18,SSW,195,0.0,0.0,78,0.00,,FEW250,0.01,VWS V14.01,2013-08-17 14:14:00,
2013-08-17 09:15:00,70.9,63.7,30.18,SSW,195,0.0,0.0,78,0.00,,CLR,0.01,VWS V14.01,2013-08-17 14:15:00,
2013-08-17 09:20:00,71.4,61.9,30.18,South,180,0.0,0.0,72,0.00,,FEW250,0.01,VWS V14.01,2013-08-17 14:20:00,
2013-08-17 09:25:00,71.7,61.8,30.18,SSW,192,0.0,0.0,71,0.00,,FEW250,0.01,VWS V14.01,2013-08-17 14:25:00,
2013-08-17 09:30:00,72.6,64.2,30.18,South,176,0.0,0.0,75,0.00,,FEW250,0.01,VWS V14.01,2013-08-17 14:30:00,
2013-08-17 09:35:00,73.3,64.1,30.18,SSE,165,0.0,0.0,73,0.00,,FEW250,0.01,VWS V14.01,2013-08-17 14:35:00,
2013-08-17 09:40:00,73.7,64.5,30.18,SSE,165,0.0,0.0,73,0.00,,FEW250,0.01,VWS V14.01,2013-08-17 14:40:00,
2013-08-17 09:45:00,73.7,65.3,30.18,SE,145,0.0,0.0,75,0.00,,FEW250,0.01,VWS V14.01,2013-08-17 14:45:00,
2013-08-17 09:50:00,73.3,64.9,30.18,SE,134,0.0,0.0,75,0.00,,FEW250,0.01,VWS V14.01,2013-08-17 14:50:00,
2013-08-17 09:55:00,73.0,64.6,30.19,East,92,0.0,0.0,75,0.00,,FEW250,0.01,VWS V14.01,2013-08-17 14:55:00,
2013-08-17 10:00:00,72.9,64.9,30.19,East,91,0.0,0.0,76,0.00,,FEW250,0.01,VWS V14.01,2013-08-17 15:00:00,
2013-08-17 10:05:00,72.9,65.3,30.19,East,92,0.0,1.0,77,0.00,,FEW250,0.01,VWS V14.01,2013-08-17 15:05:00,
2013-08-17 10:10:00,72.8,65.6,30.19,ENE,75,0.0,1.0,78,0.00,,FEW250,0.01,VWS V14.01,2013-08-17 15:10:00,
2013-08-17 10:15:00,72.7,65.8,30.19,East,97,0.0,0.0,79,0.00,,FEW250,0.01,VWS V14.01,2013-08-17 15:15:00,
2013-08-17 10:20:00,72.6,65.7,30.19,East,96,0.0,0.0,79,0.00,,FEW250,0.01,VWS V14.01,2013-08-17 15:20:00,
2013-08-17 10:25:00,72.6,65.7,30.19,East,99,0.0,2.0,79,0.00,,FEW250,0.01,VWS V14.01,2013-08-17 15:25:00,
2013-08-17 10:30:00,72.8,65.2,30.19,ESE,121,0.0,0.0,77,0.00,,FEW250,0.01,VWS V14.01,2013-08-17 15:30:00,
2013-08-17 10:35:00,73.1,65.8,30.19,East,99,0.0,3.0,78,0.00,,FEW250,0.01,VWS V14.01,2013-08-17 15:35:00,
2013-08-17 10:40:00,73.2,65.6,30.19,ESE,117,3.0,3.0,77,0.00,,FEW250,0.01,VWS V14.01,2013-08-17 15:40:00,
2013-08-17 10:45:00,73.3,65.3,30.18,East,89,0.0,1.0,76,0.00,,FEW250,0.01,VWS V14.01,2013-08-17 15:45:00,
2013-08-17 10:50:00,72.9,64.9,30.18,East,98,2.0,5.0,76,0.00,,FEW250,0.01,VWS V14.01,2013-08-17 15:50:00,
2013-08-17 10:55:00,72.8,65.2,30.18,East,96,0.0,3.0,77,0.00,,FEW250,0.01,VWS V14.01,2013-08-17 15:55:00,
2013-08-17 11:00:00,72.5,65.3,30.18,ESE,117,4.0,4.0,78,0.00,,SCT250,0.01,VWS V14.01,2013-08-17 16:00:00,
2013-08-17 11:05:00,72.6,65.3,30.18,East,82,1.0,7.0,78,0.00,,SCT250,0.01,VWS V14.01,2013-08-17 16:05:00,
2013-08-17 11:10:00,72.6,65.7,30.18,NE,47,3.0,6.0,79,0.00,,CLR,0.01,VWS V14.01,2013-08-17 16:10:00,
2013-08-17 11:11:00,72.7,65.4,30.18,East,92,2.0,6.0,78,0.00,,SCT250,0.01,VWS V14.01,2013-08-17 16:11:00,
2013-08-17 11:15:00,72.6,65.0,30.18,East,80,3.0,6.0,77,0.00,,CLR,0.01,VWS V14.01,2013-08-17 16:15:00,
2013-08-17 11:16:00,72.6,65.0,30.18,ENE,71,3.0,6.0,77,0.00,,SCT250,0.01,VWS V14.01,2013-08-17 16:16:00,
2013-08-17 11:20:00,72.3,64.7,30.18,ESE,111,0.0,6.0,77,0.00,,CLR,0.01,VWS V14.01,2013-08-17 16:20:00,
2013-08-17 11:21:00,72.2,64.6,30.18,ENE,78,1.0,6.0,77,0.00,,SCT250,0.01,VWS V14.01,2013-08-17 16:21:00,
2013-08-17 11:25:00,71.8,63.8,30.18,East,98,0.0,7.0,76,0.00,,CLR,0.01,VWS V14.01,2013-08-17 16:25:00,
2013-08-17 11:26:00,71.8,64.6,30.18,East,97,1.0,7.0,78,0.00,,SCT250,0.01,VWS V14.01,2013-08-17 16:26:00,
2013-08-17 11:30:00,71.9,64.3,30.18,East,101,3.0,6.0,77,0.00,,CLR,0.01,VWS V14.01,2013-08-17 16:30:00,
2013-08-17 11:31:00,71.9,64.7,30.18,East,89,2.0,5.0,78,0.00,,SCT250,0.01,VWS V14.01,2013-08-17 16:31:00,
2013-08-17 11:35:00,72.3,65.1,30.18,ESE,107,0.0,5.0,78,0.00,,CLR,0.01,VWS V14.01,2013-08-17 16:35:00,
2013-08-17 11:36:00,72.6,65.0,30.18,SE,133,0.0,3.0,77,0.00,,SCT250,0.01,VWS V14.01,2013-08-17 16:36:00,
2013-08-17 11:40:00,73.3,64.9,30.18,ESE,120,0.0,0.0,75,0.00,,CLR,0.01,VWS V14.01,2013-08-17 16:40:00,
2013-08-17 11:41:00,73.6,64.8,30.18,East,92,0.0,4.0,74,0.00,,SCT250,0.01,VWS V14.01,2013-08-17 16:41:00,
2013-08-17 11:45:00,73.8,65.0,30.18,ESE,121,0.0,5.0,74,0.00,,CLR,0.01,VWS V14.01,2013-08-17 16:45:00,
2013-08-17 11:46:00,74.1,64.9,30.18,SE,140,0.0,5.0,73,0.00,,SCT250,0.01,VWS V14.01,2013-08-17 16:46:00,
2013-08-17 11:50:00,74.9,65.3,30.18,ESE,103,0.0,0.0,72,0.00,,CLR,0.01,VWS V14.01,2013-08-17 16:50:00,
2013-08-17 11:51:00,75.4,65.3,30.18,ESE,111,0.0,5.0,71,0.00,,SCT250,0.01,VWS V14.01,2013-08-17 16:51:00,
2013-08-17 11:55:00,75.7,65.2,30.18,ESE,118,0.0,5.0,70,0.00,,CLR,0.01,VWS V14.01,2013-08-17 16:55:00,
2013-08-17 11:56:00,75.8,65.3,30.18,East,101,0.0,0.0,70,0.00,,SCT250,0.01,VWS V14.01,2013-08-17 16:56:00,
2013-08-17 12:00:00,75.9,65.0,30.18,East,92,0.0,6.0,69,0.00,,CLR,0.01,VWS V14.01,2013-08-17 17:00:00,
2013-08-17 12:01:00,75.9,65.4,30.17,ESE,123,0.0,6.0,70,0.00,,SCT250,0.01,VWS V14.01,2013-08-17 17:01:00,
2013-08-17 12:05:00,76.1,65.6,30.17,ESE,110,0.0,0.0,70,0.00,,CLR,0.01,VWS V14.01,2013-08-17 17:05:00,
2013-08-17 12:06:00,76.4,65.9,30.17,East,95,0.0,2.0,70,0.00,,SCT250,0.01,VWS V14.01,2013-08-17 17:06:00,
2013-08-17 12:10:00,76.6,65.3,30.17,SE,124,0.0,2.0,68,0.00,,CLR,0.01,VWS V14.01,2013-08-17 17:10:00,
2013-08-17 12:11:00,76.6,65.7,30.17,SE,132,0.0,0.0,69,0.00,,SCT250,0.01,VWS V14.01,2013-08-17 17:11:00,
2013-08-17 12:15:00,76.8,65.9,30.17,SE,131,1.0,5.0,69,0.00,,CLR,0.01,VWS V14.01,2013-08-17 17:15:00,
2013-08-17 12:16:00,76.9,66.4,30.17,ESE,107,1.0,5.0,70,0.00,,SCT250,0.01,VWS V14.01,2013-08-17 17:16:00,
2013-08-17 12:20:00,76.9,65.5,30.17,East,101,0.0,4.0,68,0.00,,CLR,0.01,VWS V14.01,2013-08-17 17:20:00,
2013-08-17 12:21:00,77.1,66.2,30.17,SSE,156,0.0,4.0,69,0.00,,SCT250,0.01,VWS V14.01,2013-08-17 17:21:00,
2013-08-17 12:25:00,76.9,65.5,30.17,SE,132,0.0,8.0,68,0.00,,CLR,0.01,VWS V14.01,2013-08-17 17:25:00,
2013-08-17 12:26:00,76.6,65.7,30.17,East,96,0.0,8.0,69,0.00,,SCT250,0.01,VWS V14.01,2013-08-17 17:26:00,
2013-08-17 12:30:00,76.5,65.2,30.17,SE,132,0.0,0.0,68,0.00,,CLR,0.01,VWS V14.01,2013-08-17 17:30:00,
2013-08-17 12:31:00,76.6,65.7,30.17,ESE,104,0.0,0.0,69,0.00,,SCT250,0.01,VWS V14.01,2013-08-17 17:31:00,
2013-08-17 12:35:00,76.8,65.9,30.17,SSE,155,0.0,0.0,69,0.00,,CLR,0.01,VWS V14.01,2013-08-17 17:35:00,
2013-08-17 12:36:00,77.0,65.6,30.17,SE,128,0.0,0.0,68,0.00,,SCT250,0.01,VWS V14.01,2013-08-17 17:36:00,
2013-08-17 12:40:00,77.3,65.9,30.17,SE,143,0.0,0.0,68,0.00,,CLR,0.01,VWS V14.01,2013-08-17 17:40:00,
2013-08-17 12:41:00,77.3,65.5,30.17,ESE,115,0.0,0.0,67,0.00,,SCT250,0.01,VWS V14.01,2013-08-17 17:41:00,
2013-08-17 12:45:00,77.5,66.1,30.17,ESE,116,0.0,0.0,68,0.00,,CLR,0.01,VWS V14.01,2013-08-17 17:45:00,
2013-08-17 12:46:00,77.5,64.8,30.17,ESE,116,0.0,0.0,65,0.00,,SCT250,0.01,VWS V14.01,2013-08-17 17:46:00,
2013-08-17 12:50:00,77.2,65.0,30.17,ESE,123,0.0,0.0,66,0.00,,CLR,0.01,VWS V14.01,2013-08-17 17:50:00,
2013-08-17 12:51:00,77.3,65.5,30.16,SE,132,0.0,0.0,67,0.00,,SCT250,0.01,VWS V14.01,2013-08-17 17:51:00,
2013-08-17 12:55:00,77.4,65.6,30.16,SE,130,0.0,0.0,67,0.00,,CLR,0.01,VWS V14.01,2013-08-17 17:55:00,
2013-08-17 12:56:00,77.3,65.5,30.16,ESE,109,0.0,0.0,67,0.00,,SCT250,0.01,VWS V14.01,2013-08-17 17:56:00,
2013-08-17 13:00:00,77.1,65.3,30.16,SE,143,0.0,2.0,67,0.00,,CLR,0.01,VWS V14.01,2013-08-17 18:00:00,
2013-08-17 13:02:00,77.0,65.6,30.16,North,360,0.0,0.0,68,0.00,,SCT250,0.01,VWS V14.01,2013-08-17 18:02:00,
2013-08-17 13:05:00,77.2,65.8,30.16,East,97,3.0,5.0,68,0.00,,CLR,0.01,VWS V14.01,2013-08-17 18:05:00,
2013-08-17 13:07:00,77.2,65.4,30.16,ESE,105,0.0,5.0,67,0.00,,SCT250,0.01,VWS V14.01,2013-08-17 18:07:00,
2013-08-17 13:10:00,77.0,65.6,30.16,East,84,0.0,0.0,68,0.00,,CLR,0.01,VWS V14.01,2013-08-17 18:10:00,
2013-08-17 13:12:00,77.0,65.6,30.16,ESE,102,0.0,0.0,68,0.00,,SCT250,0.01,VWS V14.01,2013-08-17 18:12:00,
2013-08-17 13:15:00,77.1,65.3,30.16,East,95,0.0,1.0,67,0.00,,CLR,0.01,VWS V14.01,2013-08-17 18:15:00,
2013-08-17 13:17:00,77.1,65.7,30.16,East,97,0.0,1.0,68,0.00,,SCT250,0.01,VWS V14.01,2013-08-17 18:17:00,
2013-08-17 13:20:00,77.2,65.4,30.16,ESE,115,0.0,7.0,67,0.00,,CLR,0.01,VWS V14.01,2013-08-17 18:20:00,
2013-08-17 13:22:00,77.1,65.3,30.15,East,95,0.0,7.0,67,0.00,,SCT250,0.01,VWS V14.01,2013-08-17 18:22:00,
2013-08-17 13:25:00,76.7,64.9,30.16,East,101,0.0,0.0,67,0.00,,CLR,0.01,VWS V14.01,2013-08-17 18:25:00,
2013-08-17 13:27:00,76.5,64.7,30.15,ESE,109,0.0,0.0,67,0.00,,SCT250,0.01,VWS V14.01,2013-08-17 18:27:00,
2013-08-17 13:30:00,76.6,65.7,30.15,ESE,117,0.0,0.0,69,0.00,,CLR,0.01,VWS V14.01,2013-08-17 18:30:00,
2013-08-17 13:32:00,76.6,65.3,30.15,ESE,113,0.0,0.0,68,0.00,,SCT250,0.01,VWS V14.01,2013-08-17 18:32:00,
2013-08-17 13:35:00,76.5,65.2,30.15,ESE,106,2.0,7.0,68,0.00,,CLR,0.01,VWS V14.01,2013-08-17 18:35:00,
2013-08-17 13:37:00,76.0,64.7,30.15,SE,135,0.0,7.0,68,0.00,,SCT250,0.01,VWS V14.01,2013-08-17 18:37:00,
2013-08-17 13:40:00,75.8,64.9,30.15,ESE,110,0.0,7.0,69,0.00,,CLR,0.01,VWS V14.01,2013-08-17 18:40:00,
2013-08-17 13:42:00,76.2,65.3,30.15,ESE,106,0.0,5.0,69,0.00,,SCT250,0.01,VWS V14.01,2013-08-17 18:42:00,
2013-08-17 13:45:00,76.4,65.1,30.15,ESE,111,0.0,2.0,68,0.00,,CLR,0.01,VWS V14.01,2013-08-17 18:45:00,
2013-08-17 13:47:00,76.6,65.3,30.15,ESE,118,0.0,2.0,68,0.00,,SCT250,0.01,VWS V14.01,2013-08-17 18:47:00,
2013-08-17 13:50:00,76.9,65.5,30.15,ESE,119,0.0,1.0,68,0.00,,CLR,0.01,VWS V14.01,2013-08-17 18:50:00,
2013-08-17 13:52:00,77.4,65.6,30.15,SSE,155,0.0,0.0,67,0.00,,SCT250,0.01,VWS V14.01,2013-08-17 18:52:00,
2013-08-17 13:55:00,77.8,65.1,30.15,SSW,194,0.0,0.0,65,0.00,,CLR,0.01,VWS V14.01,2013-08-17 18:55:00,
2013-08-17 13:57:00,78.4,65.2,30.15,ESE,117,0.0,0.0,64,0.00,,SCT250,0.01,VWS V14.01,2013-08-17 18:57:00,
2013-08-17 14:00:00,78.5,65.3,30.15,North,360,0.0,0.0,64,0.00,,CLR,0.01,VWS V14.01,2013-08-17 19:00:00,
2013-08-17 14:02:00,78.7,65.5,30.15,ESE,110,0.0,0.0,64,0.00,,SCT250,0.01,VWS V14.01,2013-08-17 19:02:00,
2013-08-17 14:05:00,78.8,66.1,30.15,ESE,123,0.0,0.0,65,0.00,,CLR,0.01,VWS V14.01,2013-08-17 19:05:00,
2013-08-17 14:07:00,78.9,65.2,30.15,SSE,167,0.0,0.0,63,0.00,,SCT250,0.01,VWS V14.01,2013-08-17 19:07:00,
2013-08-17 14:10:00,79.1,65.0,30.15,SE,127,0.0,0.0,62,0.00,,CLR,0.01,VWS V14.01,2013-08-17 19:10:00,
2013-08-17 14:12:00,79.3,65.6,30.15,SE,126,0.0,0.0,63,0.00,,SCT250,0.01,VWS V14.01,2013-08-17 19:12:00,
2013-08-17 14:15:00,79.4,65.7,30.14,ESE,122,0.0,0.0,63,0.00,,CLR,0.01,VWS V14.01,2013-08-17 19:15:00,
2013-08-17 14:17:00,79.6,65.4,30.14,ESE,117,0.0,0.0,62,0.00,,SCT250,0.01,VWS V14.01,2013-08-17 19:17:00,
2013-08-17 14:20:00,79.6,65.0,30.14,ESE,116,0.0,0.0,61,0.00,,CLR,0.01,VWS V14.01,2013-08-17 19:20:00,
2013-08-17 14:22:00,79.8,65.6,30.14,ESE,108,0.0,0.0,62,0.00,,SCT250,0.01,VWS V14.01,2013-08-17 19:22:00,
2013-08-17 14:25:00,79.9,65.7,30.14,ESE,116,0.0,0.0,62,0.00,,CLR,0.01,VWS V14.01,2013-08-17 19:25:00,
2013-08-17 14:28:00,79.9,65.7,30.14,ESE,107,0.0,0.0,62,0.00,,SCT250,0.01,VWS V14.01,2013-08-17 19:28:00,
2013-08-17 14:30:00,79.6,65.4,30.14,SE,133,0.0,3.0,62,0.00,,CLR,0.01,VWS V14.01,2013-08-17 19:30:00,
2013-08-17 14:33:00,78.3,64.7,30.14,ESE,123,0.0,4.0,63,0.00,,SCT250,0.01,VWS V14.01,2013-08-17 19:33:00,
2013-08-17 14:35:00,77.8,65.1,30.14,ESE,106,1.0,4.0,65,0.00,,CLR,0.01,VWS V14.01,2013-08-17 19:35:00,
2013-08-17 14:38:00,76.8,65.0,30.14,SE,130,0.0,5.0,67,0.00,,SCT250,0.01,VWS V14.01,2013-08-17 19:38:00,
2013-08-17 14:40:00,76.7,64.9,30.14,ESE,105,2.0,5.0,67,0.00,,CLR,0.01,VWS V14.01,2013-08-17 19:40:00,
2013-08-17 14:43:00,76.4,64.6,30.14,ESE,103,4.0,6.0,67,0.00,,SCT250,0.01,VWS V14.01,2013-08-17 19:43:00,
2013-08-17 14:45:00,76.3,65.0,30.14,ESE,118,0.0,6.0,68,0.00,,CLR,0.01,VWS V14.01,2013-08-17 19:45:00,
2013-08-17 14:48:00,76.1,65.2,30.14,ESE,107,0.0,3.0,69,0.00,,SCT250,0.01,VWS V14.01,2013-08-17 19:48:00,
2013-08-17 14:50:00,76.1,65.2,30.14,ESE,115,0.0,3.0,69,0.00,,CLR,0.01,VWS V14.01,2013-08-17 19:50:00,
2013-08-17 14:53:00,76.5,65.6,30.14,ESE,111,0.0,0.0,69,0.00,,SCT250,0.01,VWS V14.01,2013-08-17 19:53:00,
2013-08-17 14:55:00,76.7,65.8,30.14,SSE,165,0.0,0.0,69,0.00,,CLR,0.01,VWS V14.01,2013-08-17 19:55:00,
2013-08-17 14:58:00,77.3,65.9,30.14,ESE,108,0.0,0.0,68,0.00,,SCT250,0.01,VWS V14.01,2013-08-17 19:58:00,
2013-08-17 15:00:00,77.6,65.8,30.14,ESE,111,0.0,0.0,67,0.00,,CLR,0.01,VWS V14.01,2013-08-17 20:00:00,
2013-08-17 15:03:00,77.8,65.5,30.14,ESE,103,0.0,4.0,66,0.00,,SCT250,0.01,VWS V14.01,2013-08-17 20:03:00,
2013-08-17 15:05:00,77.8,65.5,30.14,ESE,117,0.0,3.0,66,0.00,,CLR,0.01,VWS V14.01,2013-08-17 20:05:00,
2013-08-17 15:08:00,77.5,65.7,30.14,ESE,117,1.0,6.0,67,0.00,,SCT250,0.01,VWS V14.01,2013-08-17 20:08:00,
2013-08-17 15:10:00,77.4,65.6,30.14,SE,125,0.0,7.0,67,0.00,,CLR,0.01,VWS V14.01,2013-08-17 20:10:00,
2013-08-17 15:13:00,76.6,65.3,30.14,East,95,0.0,5.0,68,0.00,,SCT250,0.01,VWS V14.01,2013-08-17 20:13:00,
2013-08-17 15:15:00,76.4,65.5,30.14,ESE,116,0.0,5.0,69,0.00,,CLR,0.01,VWS V14.01,2013-08-17 20:15:00,
2013-08-17 15:18:00,76.0,65.1,30.14,East,88,0.0,8.0,69,0.00,,SCT250,0.01,VWS V14.01,2013-08-17 20:18:00,
2013-08-17 15:20:00,76.0,65.5,30.14,East,96,0.0,8.0,70,0.00,,CLR,0.01,VWS V14.01,2013-08-17 20:20:00,
2013-08-17 15:23:00,76.1,66.0,30.14,ESE,111,0.0,0.0,71,0.00,,SCT250,0.01,VWS V14.01,2013-08-17 20:23:00,
2013-08-17 15:25:00,76.1,66.0,30.14,East,97,0.0,0.0,71,0.00,,CLR,0.01,VWS V14.01,2013-08-17 20:25:00,
2013-08-17 15:28:00,76.0,65.5,30.14,East,98,0.0,3.0,70,0.00,,SCT250,0.01,VWS V14.01,2013-08-17 20:28:00,
2013-08-17 15:30:00,76.0,65.9,30.14,East,96,0.0,3.0,71,0.00,,CLR,0.01,VWS V14.01,2013-08-17 20:30:00,
2013-08-17 15:33:00,76.2,66.5,30.14,NE,55,0.0,0.0,72,0.00,,SCT250,0.01,VWS V14.01,2013-08-17 20:33:00,
2013-08-17 15:35:00,76.2,66.5,30.14,East,98,0.0,0.0,72,0.00,,CLR,0.01,VWS V14.01,2013-08-17 20:35:00,
2013-08-17 15:38:00,76.4,65.9,30.14,East,92,0.0,1.0,70,0.00,,SCT250,0.01,VWS V14.01,2013-08-17 20:38:00,
2013-08-17 15:40:00,76.4,65.9,30.14,East,97,0.0,1.0,70,0.00,,CLR,0.01,VWS V14.01,2013-08-17 20:40:00,
2013-08-17 15:43:00,76.4,65.5,30.14,East,82,0.0,6.0,69,0.00,,SCT250,0.01,VWS V14.01,2013-08-17 20:43:00,
2013-08-17 15:45:00,76.3,65.4,30.14,ESE,113,0.0,6.0,69,0.00,,CLR,0.01,VWS V14.01,2013-08-17 20:45:00,
2013-08-17 15:48:00,76.0,65.9,30.14,East,97,0.0,3.0,71,0.00,,SCT250,0.01,VWS V14.01,2013-08-17 20:48:00,
2013-08-17 15:50:00,76.0,65.9,30.14,East,88,0.0,4.0,71,0.00,,CLR,0.01,VWS V14.01,2013-08-17 20:50:00,
2013-08-17 15:53:00,76.2,66.1,30.14,ESE,102,0.0,0.0,71,0.00,,SCT250,0.01,VWS V14.01,2013-08-17 20:53:00,
2013-08-17 15:55:00,76.3,66.2,30.14,East,99,0.0,0.0,71,0.00,,CLR,0.01,VWS V14.01,2013-08-17 20:55:00,
2013-08-17 15:58:00,76.5,66.0,30.14,East,91,0.0,1.0,70,0.00,,SCT250,0.01,VWS V14.01,2013-08-17 20:58:00,
2013-08-17 16:00:00,76.6,65.7,30.14,East,95,0.0,1.0,69,0.00,,CLR,0.01,VWS V14.01,2013-08-17 21:00:00,
2013-08-17 16:03:00,76.6,65.7,30.14,East,98,0.0,1.0,69,0.00,,SCT250,0.01,VWS V14.01,2013-08-17 21:03:00,
2013-08-17 16:05:00,76.5,65.6,30.14,East,90,0.0,1.0,69,0.00,,CLR,0.01,VWS V14.01,2013-08-17 21:05:00,
2013-08-17 16:08:00,76.4,65.5,30.14,East,98,0.0,0.0,69,0.00,,SCT250,0.01,VWS V14.01,2013-08-17 21:08:00,
2013-08-17 16:10:00,76.4,65.9,30.14,East,96,0.0,0.0,70,0.00,,CLR,0.01,VWS V14.01,2013-08-17 21:10:00,
2013-08-17 16:13:00,76.2,66.1,30.13,ESE,111,0.0,0.0,71,0.00,,SCT250,0.01,VWS V14.01,2013-08-17 21:13:00,
2013-08-17 16:15:00,76.1,66.0,30.13,ESE,111,0.0,0.0,71,0.00,,CLR,0.01,VWS V14.01,2013-08-17 21:15:00,
2013-08-17 16:18:00,75.8,65.7,30.13,ESE,105,0.0,3.0,71,0.00,,SCT250,0.01,VWS V14.01,2013-08-17 21:18:00,
2013-08-17 16:20:00,75.7,65.6,30.13,East,100,0.0,3.0,71,0.00,,CLR,0.01,VWS V14.01,2013-08-17 21:20:00,
2013-08-17 16:24:00,75.5,65.8,30.13,ESE,114,0.0,3.0,72,0.00,,SCT250,0.01,VWS V14.01,2013-08-17 21:24:00,
2013-08-17 16:25:00,75.5,65.8,30.13,ENE,68,0.0,3.0,72,0.00,,CLR,0.01,VWS V14.01,2013-08-17 21:25:00,
2013-08-17 16:29:00,75.4,65.8,30.13,SE,130,2.0,7.0,72,0.00,,SCT250,0.01,VWS V14.01,2013-08-17 21:29:00,
2013-08-17 16:30:00,75.4,65.8,30.13,SE,130,0.0,7.0,72,0.00,,CLR,0.01,VWS V14.01,2013-08-17 21:30:00,
2013-08-17 16:34:00,75.4,65.8,30.13,ESE,115,0.0,0.0,72,0.00,,SCT250,0.01,VWS V14.01,2013-08-17 21:34:00,
2013-08-17 16:35:00,75.5,65.8,30.13,ESE,113,0.0,0.0,72,0.00,,CLR,0.01,VWS V14.01,2013-08-17 21:35:00,
2013-08-17 16:39:00,75.6,65.5,30.13,SE,126,0.0,0.0,71,0.00,,SCT250,0.01,VWS V14.01,2013-08-17 21:39:00,
2013-08-17 16:40:00,75.5,65.4,30.13,ESE,123,0.0,0.0,71,0.00,,CLR,0.01,VWS V14.01,2013-08-17 21:40:00,
2013-08-17 16:44:00,75.5,65.8,30.13,ESE,118,0.0,4.0,72,0.00,,SCT250,0.01,VWS V14.01,2013-08-17 21:44:00,
2013-08-17 16:45:00,75.5,65.8,30.13,ESE,118,0.0,4.0,72,0.00,,CLR,0.01,VWS V14.01,2013-08-17 21:45:00,
2013-08-17 16:49:00,75.3,66.1,30.13,SE,140,0.0,4.0,73,0.00,,SCT250,0.01,VWS V14.01,2013-08-17 21:49:00,
2013-08-17 16:50:00,75.3,66.1,30.13,SE,140,0.0,4.0,73,0.00,,CLR,0.01,VWS V14.01,2013-08-17 21:50:00,
2013-08-17 16:54:00,75.1,65.5,30.13,ESE,119,0.0,4.0,72,0.00,,SCT250,0.01,VWS V14.01,2013-08-17 21:54:00,
2013-08-17 16:55:00,75.2,66.0,30.13,ESE,116,0.0,4.0,73,0.00,,CLR,0.01,VWS V14.01,2013-08-17 21:55:00,
2013-08-17 16:59:00,75.2,65.6,30.13,ESE,118,0.0,1.0,72,0.00,,SCT250,0.01,VWS V14.01,2013-08-17 21:59:00,
2013-08-17 17:00:00,75.2,65.6,30.13,ESE,121,0.0,1.0,72,0.00,,CLR,0.01,VWS V14.01,2013-08-17 22:00:00,
2013-08-17 17:04:00,74.9,65.3,30.13,SE,136,0.0,1.0,72,0.00,,SCT250,0.01,VWS V14.01,2013-08-17 22:04:00,
2013-08-17 17:05:00,74.9,65.3,30.13,SE,136,0.0,1.0,72,0.00,,CLR,0.01,VWS V14.01,2013-08-17 22:05:00,
2013-08-17 17:09:00,74.8,65.6,30.12,SE,133,0.0,0.0,73,0.00,,SCT250,0.01,VWS V14.01,2013-08-17 22:09:00,
2013-08-17 17:10:00,74.7,65.5,30.12,SE,133,0.0,0.0,73,0.00,,CLR,0.01,VWS V14.01,2013-08-17 22:10:00,
2013-08-17 17:14:00,74.6,65.4,30.12,SE,139,0.0,2.0,73,0.00,,SCT250,0.01,VWS V14.01,2013-08-17 22:14:00,
2013-08-17 17:15:00,74.6,65.4,30.12,SE,134,0.0,2.0,73,0.00,,CLR,0.01,VWS V14.01,2013-08-17 22:15:00,
2013-08-17 17:19:00,74.7,65.9,30.12,ESE,112,0.0,0.0,74,0.00,,SCT250,0.01,VWS V14.01,2013-08-17 22:19:00,
2013-08-17 17:20:00,74.7,65.9,30.12,ESE,112,0.0,0.0,74,0.00,,CLR,0.01,VWS V14.01,2013-08-17 22:20:00,
2013-08-17 17:24:00,75.1,65.9,30.12,ESE,120,0.0,0.0,73,0.00,,SCT250,0.01,VWS V14.01,2013-08-17 22:24:00,
2013-08-17 17:25:00,75.1,65.9,30.12,ESE,120,0.0,0.0,73,0.00,,CLR,0.01,VWS V14.01,2013-08-17 22:25:00,
2013-08-17 17:29:00,75.3,65.7,30.12,ESE,116,1.0,1.0,72,0.00,,SCT250,0.01,VWS V14.01,2013-08-17 22:29:00,
2013-08-17 17:30:00,75.3,65.7,30.12,ESE,116,1.0,1.0,72,0.00,,CLR,0.01,VWS V14.01,2013-08-17 22:30:00,
2013-08-17 17:34:00,74.8,65.2,30.12,ESE,121,0.0,1.0,72,0.00,,SCT250,0.01,VWS V14.01,2013-08-17 22:34:00,
2013-08-17 17:35:00,74.8,65.2,30.12,ESE,121,0.0,1.0,72,0.00,,CLR,0.01,VWS V14.01,2013-08-17 22:35:00,
2013-08-17 17:39:00,74.7,65.1,30.12,ESE,119,0.0,0.0,72,0.00,,SCT250,0.01,VWS V14.01,2013-08-17 22:39:00,
2013-08-17 17:40:00,74.7,65.1,30.12,ESE,119,0.0,0.0,72,0.00,,CLR,0.01,VWS V14.01,2013-08-17 22:40:00,
2013-08-17 17:44:00,74.4,65.6,30.12,ESE,121,0.0,0.0,74,0.00,,SCT250,0.01,VWS V14.01,2013-08-17 22:44:00,
2013-08-17 17:45:00,74.4,65.6,30.12,ESE,121,0.0,0.0,74,0.00,,CLR,0.01,VWS V14.01,2013-08-17 22:45:00,
2013-08-17 17:49:00,74.8,66.0,30.12,ESE,123,0.0,0.0,74,0.00,,SCT250,0.01,VWS V14.01,2013-08-17 22:49:00,
2013-08-17 17:50:00,74.8,66.0,30.12,ESE,123,0.0,0.0,74,0.00,,CLR,0.01,VWS V14.01,2013-08-17 22:50:00,
2013-08-17 17:54:00,74.4,65.2,30.12,SE,130,0.0,3.0,73,0.00,,SCT250,0.01,VWS V14.01,2013-08-17 22:54:00,
2013-08-17 17:55:00,74.4,65.2,30.12,SE,130,0.0,3.0,73,0.00,,CLR,0.01,VWS V14.01,2013-08-17 22:55:00,
2013-08-17 17:59:00,73.7,65.3,30.12,SE,128,0.0,0.0,75,0.00,,SCT250,0.01,VWS V14.01,2013-08-17 22:59:00,
2013-08-17 18:00:00,73.7,65.3,30.12,SE,128,0.0,0.0,75,0.00,,CLR,0.01,VWS V14.01,2013-08-17 23:00:00,
2013-08-17 18:04:00,73.4,65.0,30.12,SE,142,0.0,1.0,75,0.00,,FEW250,0.01,VWS V14.01,2013-08-17 23:04:00,
2013-08-17 18:05:00,73.5,65.1,30.12,SE,142,0.0,1.0,75,0.00,,CLR,0.01,VWS V14.01,2013-08-17 23:05:00,
2013-08-17 18:10:00,73.4,65.0,30.12,ESE,123,0.0,0.0,75,0.00,,FEW250,0.01,VWS V14.01,2013-08-17 23:10:00,
2013-08-17 18:15:00,73.3,65.7,30.12,ESE,119,0.0,0.0,77,0.00,,FEW250,0.01,VWS V14.01,2013-08-17 23:15:00,
2013-08-17 18:20:00,73.3,65.7,30.12,ESE,123,0.0,0.0,77,0.00,,FEW250,0.01,VWS V14.01,2013-08-17 23:20:00,
2013-08-17 18:25:00,73.1,65.5,30.12,ESE,119,0.0,0.0,77,0.00,,FEW250,0.01,VWS V14.01,2013-08-17 23:25:00,
2013-08-17 18:30:00,73.0,65.7,30.12,ESE,119,0.0,0.0,78,0.00,,FEW250,0.01,VWS V14.01,2013-08-17 23:30:00,
2013-08-17 18:35:00,72.9,65.7,30.12,SE,128,0.0,0.0,78,0.00,,FEW250,0.01,VWS V14.01,2013-08-17 23:35:00,
2013-08-17 18:40:00,73.1,65.8,30.12,ESE,119,0.0,0.0,78,0.00,,FEW250,0.01,VWS V14.01,2013-08-17 23:40:00,
2013-08-17 18:45:00,73.1,65.8,30.11,ESE,117,0.0,0.0,78,0.00,,FEW250,0.01,VWS V14.01,2013-08-17 23:45:00,
2013-08-17 18:50:00,73.2,65.6,30.11,ESE,117,0.0,0.0,77,0.00,,FEW250,0.01,VWS V14.01,2013-08-17 23:50:00,
2013-08-17 18:55:00,73.2,65.2,30.11,ESE,117,0.0,0.0,76,0.00,,FEW250,0.01,VWS V14.01,2013-08-17 23:55:00,
2013-08-17 19:00:00,73.3,65.3,30.11,ESE,117,0.0,0.0,76,0.00,,FEW250,0.01,VWS V14.01,2013-08-18 00:00:00,
2013-08-17 19:05:00,73.3,64.9,30.11,ESE,117,0.0,0.0,75,0.00,,FEW250,0.01,VWS V14.01,2013-08-18 00:05:00,
2013-08-17 19:10:00,73.3,64.9,30.11,ESE,117,0.0,0.0,75,0.00,,FEW250,0.01,VWS V14.01,2013-08-18 00:10:00,
2013-08-17 19:15:00,73.0,64.2,30.11,ESE,117,0.0,0.0,74,0.00,,FEW250,0.01,VWS V14.01,2013-08-18 00:15:00,
2013-08-17 19:20:00,72.8,63.7,30.11,ESE,117,0.0,0.0,73,0.00,,FEW250,0.01,VWS V14.01,2013-08-18 00:20:00,
2013-08-17 19:25:00,72.6,63.1,30.11,ESE,117,0.0,0.0,72,0.00,,FEW250,0.01,VWS V14.01,2013-08-18 00:25:00,
2013-08-17 19:30:00,72.4,62.9,30.11,ESE,117,0.0,0.0,72,0.00,,FEW250,0.01,VWS V14.01,2013-08-18 00:30:00,
2013-08-17 19:35:00,72.1,62.6,30.11,ESE,117,0.0,0.0,72,0.00,,FEW250,0.01,VWS V14.01,2013-08-18 00:35:00,
2013-08-17 19:40:00,71.8,62.3,30.11,ESE,117,0.0,0.0,72,0.00,,FEW250,0.01,VWS V14.01,2013-08-18 00:40:00,
2013-08-17 19:45:00,71.4,61.9,30.11,ESE,117,0.0,0.0,72,0.00,,FEW250,0.01,VWS V14.01,2013-08-18 00:45:00,
2013-08-17 19:50:00,70.9,61.4,30.11,ESE,117,0.0,0.0,72,0.00,,FEW250,0.01,VWS V14.01,2013-08-18 00:50:00,
2013-08-17 19:55:00,70.4,61.7,30.11,ESE,117,0.0,0.0,74,0.00,,FEW250,0.01,VWS V14.01,2013-08-18 00:55:00,
2013-08-17 20:00:00,70.0,61.7,30.11,ESE,117,0.0,0.0,75,0.00,,CLR,0.01,VWS V14.01,2013-08-18 01:00:00,
2013-08-17 20:05:00,69.7,61.4,30.11,ESE,117,0.0,0.0,75,0.00,,CLR,0.01,VWS V14.01,2013-08-18 01:05:00,
2013-08-17 20:06:00,69.6,61.3,30.11,ESE,117,0.0,0.0,75,0.00,,CLR,0.01,VWS V14.01,2013-08-18 01:06:00,
2013-08-17 20:10:00,69.4,61.5,30.11,ESE,117,0.0,0.0,76,0.00,,CLR,0.01,VWS V14.01,2013-08-18 01:10:00,
2013-08-17 20:11:00,69.3,61.4,30.11,ESE,117,0.0,0.0,76,0.00,,CLR,0.01,VWS V14.01,2013-08-18 01:11:00,
2013-08-17 20:15:00,69.1,61.6,30.11,ESE,117,0.0,0.0,77,0.00,,CLR,0.01,VWS V14.01,2013-08-18 01:15:00,
2013-08-17 20:16:00,69.0,61.5,30.11,ESE,117,0.0,0.0,77,0.00,,CLR,0.01,VWS V14.01,2013-08-18 01:16:00,
2013-08-17 20:20:00,68.9,61.8,30.11,ESE,117,0.0,0.0,78,0.00,,CLR,0.01,VWS V14.01,2013-08-18 01:20:00,
2013-08-17 20:21:00,68.8,61.7,30.11,ESE,117,0.0,0.0,78,0.00,,CLR,0.01,VWS V14.01,2013-08-18 01:21:00,
2013-08-17 20:25:00,68.6,61.5,30.11,ESE,117,0.0,0.0,78,0.00,,CLR,0.01,VWS V14.01,2013-08-18 01:25:00,
2013-08-17 20:26:00,68.5,61.4,30.11,ESE,117,0.0,0.0,78,0.00,,CLR,0.01,VWS V14.01,2013-08-18 01:26:00,
2013-08-17 20:30:00,68.3,60.8,30.11,ESE,117,0.0,0.0,77,0.00,,CLR,0.01,VWS V14.01,2013-08-18 01:30:00,
2013-08-17 20:31:00,68.2,60.7,30.11,ESE,117,0.0,0.0,77,0.00,,CLR,0.01,VWS V14.01,2013-08-18 01:31:00,
2013-08-17 20:35:00,68.0,60.9,30.11,ESE,117,0.0,0.0,78,0.00,,CLR,0.01,VWS V14.01,2013-08-18 01:35:00,
2013-08-17 20:36:00,68.0,60.9,30.11,ESE,117,0.0,0.0,78,0.00,,CLR,0.01,VWS V14.01,2013-08-18 01:36:00,
2013-08-17 20:40:00,67.9,60.8,30.11,ESE,117,0.0,0.0,78,0.00,,CLR,0.01,VWS V14.01,2013-08-18 01:40:00,
2013-08-17 20:41:00,67.8,60.7,30.11,ESE,117,0.0,0.0,78,0.00,,CLR,0.01,VWS V14.01,2013-08-18 01:41:00,
2013-08-17 20:45:00,67.7,60.6,30.11,ESE,117,0.0,0.0,78,0.00,,CLR,0.01,VWS V14.01,2013-08-18 01:45:00,
2013-08-17 20:46:00,67.8,60.7,30.11,SE,133,0.0,1.0,78,0.00,,CLR,0.01,VWS V14.01,2013-08-18 01:46:00,
2013-08-17 20:50:00,67.9,61.2,30.11,South,172,0.0,0.0,79,0.00,,CLR,0.01,VWS V14.01,2013-08-18 01:50:00,
2013-08-17 20:51:00,67.9,61.2,30.11,South,172,0.0,0.0,79,0.00,,CLR,0.01,VWS V14.01,2013-08-18 01:51:00,
2013-08-17 20:55:00,67.9,61.2,30.11,South,171,0.0,0.0,79,0.00,,CLR,0.01,VWS V14.01,2013-08-18 01:55:00,
2013-08-17 20:56:00,67.9,61.5,30.11,South,172,0.0,0.0,80,0.00,,CLR,0.01,VWS V14.01,2013-08-18 01:56:00,
2013-08-17 21:00:00,67.8,61.8,30.11,South,172,0.0,0.0,81,0.00,,CLR,0.01,VWS V14.01,2013-08-18 02:00:00,
2013-08-17 21:01:00,67.7,61.7,30.11,South,172,0.0,0.0,81,0.00,,CLR,0.01,VWS V14.01,2013-08-18 02:01:00,
2013-08-17 21:05:00,67.6,61.6,30.11,South,172,0.0,0.0,81,0.00,,CLR,0.01,VWS V14.01,2013-08-18 02:05:00,
2013-08-17 21:06:00,67.5,61.8,30.11,South,172,0.0,0.0,82,0.00,,CLR,0.01,VWS V14.01,2013-08-18 02:06:00,
2013-08-17 21:10:00,67.3,61.6,30.11,South,172,0.0,0.0,82,0.00,,CLR,0.01,VWS V14.01,2013-08-18 02:10:00,
2013-08-17 21:11:00,67.2,61.5,30.11,South,172,0.0,0.0,82,0.00,,CLR,0.01,VWS V14.01,2013-08-18 02:11:00,
2013-08-17 21:15:00,66.9,61.6,30.11,South,172,0.0,0.0,83,0.00,,CLR,0.01,VWS V14.01,2013-08-18 02:15:00,
2013-08-17 21:16:00,66.8,61.5,30.11,South,172,0.0,0.0,83,0.00,,CLR,0.01,VWS V14.01,2013-08-18 02:16:00,
2013-08-17 21:20:00,66.6,61.3,30.11,South,172,0.0,0.0,83,0.00,,CLR,0.01,VWS V14.01,2013-08-18 02:20:00,
2013-08-17 21:21:00,66.4,61.1,30.11,South,172,0.0,0.0,83,0.00,,CLR,0.01,VWS V14.01,2013-08-18 02:21:00,
2013-08-17 21:25:00,66.1,61.1,30.11,South,172,0.0,0.0,84,0.00,,CLR,0.01,VWS V14.01,2013-08-18 02:25:00,
2013-08-17 21:26:00,65.9,60.9,30.11,South,172,0.0,0.0,84,0.00,,CLR,0.01,VWS V14.01,2013-08-18 02:26:00,
2013-08-17 21:30:00,65.7,61.1,30.11,South,172,0.0,0.0,85,0.00,,CLR,0.01,VWS V14.01,2013-08-18 02:30:00,
2013-08-17 21:31:00,65.6,60.6,30.11,South,172,0.0,0.0,84,0.00,,CLR,0.01,VWS V14.01,2013-08-18 02:31:00,
2013-08-17 21:35:00,65.6,60.6,30.11,South,172,0.0,0.0,84,0.00,,CLR,0.01,VWS V14.01,2013-08-18 02:35:00,
2013-08-17 21:36:00,65.6,60.6,30.11,South,172,0.0,0.0,84,0.00,,CLR,0.01,VWS V14.01,2013-08-18 02:36:00,
2013-08-17 21:40:00,65.5,60.5,30.11,South,172,0.0,0.0,84,0.00,,CLR,0.01,VWS V14.01,2013-08-18 02:40:00,
2013-08-17 21:41:00,65.5,60.5,30.11,South,172,0.0,0.0,84,0.00,,CLR,0.01,VWS V14.01,2013-08-18 02:41:00,
2013-08-17 21:45:00,65.5,60.5,30.11,South,172,0.0,0.0,84,0.00,,CLR,0.01,VWS V14.01,2013-08-18 02:45:00,
2013-08-17 21:46:00,65.4,60.5,30.11,South,172,0.0,0.0,84,0.00,,CLR,0.01,VWS V14.01,2013-08-18 02:46:00,
2013-08-17 21:50:00,65.3,60.3,30.11,South,172,0.0,0.0,84,0.00,,CLR,0.01,VWS V14.01,2013-08-18 02:50:00,
2013-08-17 21:52:00,65.2,60.2,30.11,South,172,0.0,0.0,84,0.00,,CLR,0.01,VWS V14.01,2013-08-18 02:52:00,
2013-08-17 21:55:00,65.0,60.4,30.11,South,172,0.0,0.0,85,0.00,,CLR,0.01,VWS V14.01,2013-08-18 02:55:00,
2013-08-17 21:57:00,64.9,60.3,30.11,South,172,0.0,0.0,85,0.00,,CLR,0.01,VWS V14.01,2013-08-18 02:57:00,
2013-08-17 22:00:00,64.7,60.1,30.11,South,172,0.0,0.0,85,0.00,,CLR,0.01,VWS V14.01,2013-08-18 03:00:00,
2013-08-17 22:02:00,64.6,60.0,30.11,South,172,0.0,0.0,85,0.00,,CLR,0.01,VWS V14.01,2013-08-18 03:02:00,
2013-08-17 22:05:00,64.5,59.9,30.11,South,172,0.0,0.0,85,0.00,,CLR,0.01,VWS V14.01,2013-08-18 03:05:00,
2013-08-17 22:07:00,64.4,59.8,30.11,South,172,0.0,0.0,85,0.00,,CLR,0.01,VWS V14.01,2013-08-18 03:07:00,
2013-08-17 22:10:00,64.3,60.0,30.11,South,172,0.0,0.0,86,0.00,,CLR,0.01,VWS V14.01,2013-08-18 03:10:00,
2013-08-17 22:12:00,64.2,59.9,30.11,South,172,0.0,0.0,86,0.00,,CLR,0.01,VWS V14.01,2013-08-18 03:12:00,
2013-08-17 22:15:00,64.1,59.8,30.11,South,172,0.0,0.0,86,0.00,,CLR,0.01,VWS V14.01,2013-08-18 03:15:00,
2013-08-17 22:17:00,64.0,59.7,30.11,South,172,0.0,0.0,86,0.00,,CLR,0.01,VWS V14.01,2013-08-18 03:17:00,
2013-08-17 22:20:00,63.8,59.5,30.11,South,172,0.0,0.0,86,0.00,,CLR,0.01,VWS V14.01,2013-08-18 03:20:00,
2013-08-17 22:22:00,63.7,59.8,30.11,South,171,0.0,0.0,87,0.00,,CLR,0.01,VWS V14.01,2013-08-18 03:22:00,
2013-08-17 22:25:00,63.6,59.7,30.11,South,172,0.0,0.0,87,0.00,,CLR,0.01,VWS V14.01,2013-08-18 03:25:00,
2013-08-17 22:27:00,63.4,59.5,30.11,South,172,0.0,0.0,87,0.00,,CLR,0.01,VWS V14.01,2013-08-18 03:27:00,
2013-08-17 22:30:00,63.3,59.4,30.11,South,172,0.0,0.0,87,0.00,,CLR,0.01,VWS V14.01,2013-08-18 03:30:00,
2013-08-17 22:32:00,63.1,59.2,30.11,South,172,0.0,0.0,87,0.00,,CLR,0.01,VWS V14.01,2013-08-18 03:32:00,
2013-08-17 22:35:00,62.9,59.0,30.11,South,172,0.0,0.0,87,0.00,,CLR,0.01,VWS V14.01,2013-08-18 03:35:00,
2013-08-17 22:37:00,62.6,59.0,30.11,South,172,0.0,0.0,88,0.00,,CLR,0.01,VWS V14.01,2013-08-18 03:37:00,
2013-08-17 22:40:00,62.5,58.9,30.11,South,172,0.0,0.0,88,0.00,,CLR,0.01,VWS V14.01,2013-08-18 03:40:00,
2013-08-17 22:42:00,62.2,58.9,30.11,South,172,0.0,0.0,89,0.00,,CLR,0.01,VWS V14.01,2013-08-18 03:42:00,
2013-08-17 22:45:00,62.1,58.8,30.11,South,171,0.0,0.0,89,0.00,,CLR,0.01,VWS V14.01,2013-08-18 03:45:00,
2013-08-17 22:47:00,62.0,59.0,30.11,South,172,0.0,0.0,90,0.00,,CLR,0.01,VWS V14.01,2013-08-18 03:47:00,
2013-08-17 22:50:00,62.1,59.1,30.11,South,171,0.0,0.0,90,0.00,,CLR,0.01,VWS V14.01,2013-08-18 03:50:00,
2013-08-17 22:52:00,62.0,59.0,30.11,South,172,0.0,0.0,90,0.00,,CLR,0.01,VWS V14.01,2013-08-18 03:52:00,
2013-08-17 22:55:00,62.0,59.0,30.11,South,171,0.0,0.0,90,0.00,,CLR,0.01,VWS V14.01,2013-08-18 03:55:00,
2013-08-17 22:57:00,62.0,59.0,30.11,South,172,0.0,0.0,90,0.00,,CLR,0.01,VWS V14.01,2013-08-18 03:57:00,
2013-08-17 23:00:00,62.0,59.0,30.11,South,172,0.0,0.0,90,0.00,,CLR,0.01,VWS V14.01,2013-08-18 04:00:00,
2013-08-17 23:01:00,62.0,59.0,30.11,South,172,0.0,0.0,90,0.00,,CLR,0.01,VWS V14.01,2013-08-18 04:01:00,
2013-08-17 23:02:00,62.0,59.0,30.11,South,172,0.0,0.0,90,0.00,,CLR,0.01,VWS V14.01,2013-08-18 04:02:00,
2013-08-17 23:04:00,62.0,59.0,30.11,South,172,0.0,0.0,90,0.00,,CLR,0.01,VWS V14.01,2013-08-18 04:04:00,
2013-08-17 23:05:00,62.0,59.0,30.11,South,172,0.0,0.0,90,0.00,,CLR,0.01,VWS V14.01,2013-08-18 04:05:00,
2013-08-17 23:09:00,62.0,58.7,30.11,South,172,0.0,0.0,89,0.00,,CLR,0.01,VWS V14.01,2013-08-18 04:09:00,
2013-08-17 23:10:00,61.9,58.6,30.11,South,172,0.0,0.0,89,0.00,,CLR,0.01,VWS V14.01,2013-08-18 04:10:00,
2013-08-17 23:13:00,61.8,58.5,30.11,South,172,0.0,0.0,89,0.00,,CLR,0.01,VWS V14.01,2013-08-18 04:13:00,
2013-08-17 23:15:00,61.8,58.5,30.11,South,172,0.0,0.0,89,0.00,,CLR,0.01,VWS V14.01,2013-08-18 04:15:00,
2013-08-17 23:18:00,61.5,58.5,30.11,South,172,0.0,0.0,90,0.00,,CLR,0.01,VWS V14.01,2013-08-18 04:18:00,
2013-08-17 23:20:00,61.5,58.5,30.11,South,172,0.0,0.0,90,0.00,,CLR,0.01,VWS V14.01,2013-08-18 04:20:00,
2013-08-17 23:23:00,61.2,58.2,30.11,South,172,0.0,0.0,90,0.00,,CLR,0.01,VWS V14.01,2013-08-18 04:23:00,
2013-08-17 23:25:00,61.2,58.2,30.11,South,172,0.0,0.0,90,0.00,,CLR,0.01,VWS V14.01,2013-08-18 04:25:00,
2013-08-17 23:28:00,61.0,58.4,30.11,South,172,0.0,0.0,91,0.00,,CLR,0.01,VWS V14.01,2013-08-18 04:28:00,
2013-08-17 23:30:00,61.1,58.5,30.11,South,172,0.0,0.0,91,0.00,,CLR,0.01,VWS V14.01,2013-08-18 04:30:00,
2013-08-17 23:33:00,61.0,58.4,30.11,South,172,0.0,0.0,91,0.00,,CLR,0.01,VWS V14.01,2013-08-18 04:33:00,
2013-08-17 23:35:00,61.0,58.4,30.11,South,172,0.0,0.0,91,0.00,,CLR,0.01,VWS V14.01,2013-08-18 04:35:00,
2013-08-17 23:38:00,60.8,58.2,30.11,South,172,0.0,0.0,91,0.00,,CLR,0.01,VWS V14.01,2013-08-18 04:38:00,
2013-08-17 23:40:00,60.8,58.2,30.11,South,172,0.0,0.0,91,0.00,,CLR,0.01,VWS V14.01,2013-08-18 04:40:00,
2013-08-17 23:44:00,60.6,58.0,30.11,South,172,0.0,0.0,91,0.00,,CLR,0.01,VWS V14.01,2013-08-18 04:44:00,
2013-08-17 23:45:00,60.6,58.0,30.11,South,171,0.0,0.0,91,0.00,,CLR,0.01,VWS V14.01,2013-08-18 04:45:00,
2013-08-17 23:49:00,60.7,58.4,30.11,South,172,0.0,0.0,92,0.00,,CLR,0.01,VWS V14.01,2013-08-18 04:49:00,
2013-08-17 23:50:00,60.7,58.4,30.11,South,172,0.0,0.0,92,0.00,,CLR,0.01,VWS V14.01,2013-08-18 04:50:00,
2013-08-17 23:54:00,60.6,58.3,30.11,South,172,0.0,0.0,92,0.00,,CLR,0.01,VWS V14.01,2013-08-18 04:54:00,
2013-08-17 23:55:00,60.6,58.3,30.11,South,171,0.0,0.0,92,0.00,,CLR,0.01,VWS V14.01,2013-08-18 04:55:00,
2013-08-17 23:59:00,60.5,57.9,30.11,South,171,0.0,0.0,91,0.00,,CLR,0.01,VWS V14.01,2013-08-18 04:59:00,